Time;durP1;ratioP1;P1;durP2;ratioP2;P2;SDS_P1;SDS_P2;PMS_P1;PMS_P2;Temp;Humidity;BMP_temperature;BMP_pressure;BME280_temperature;BME280_humidity;BME280_pressure;Samples;Min_cycle;Max_cycle;Signal;HPM_P1;HPM_P2
2021/12/26 00:01:08;;;;;;;17.25;10.48;;;;;;;0.00;92.32;99710.22;4867178;29;20589;-90
2021/12/26 00:03:37;;;;;;;14.23;9.75;;;;;;;-0.05;92.33;99696.44;4857492;29;20149;-89
2021/12/26 00:06:07;;;;;;;17.48;10.30;;;;;;;-0.15;92.93;99680.97;4863852;29;20408;-90
2021/12/26 00:08:35;;;;;;;18.55;9.70;;;;;;;0.03;91.62;99711.94;4861229;29;20102;-89
2021/12/26 00:11:04;;;;;;;14.82;9.32;;;;;;;0.02;91.42;99712.81;4864512;29;20058;-89
2021/12/26 00:13:32;;;;;;;15.85;9.65;;;;;;;0.01;91.09;99703.28;4870913;29;20044;-90
2021/12/26 00:16:00;;;;;;;13.85;9.63;;;;;;;-0.21;90.37;99649.84;4877218;29;20058;-89
2021/12/26 00:18:27;;;;;;;16.00;9.70;;;;;;;-0.05;90.23;99687.78;4880400;29;20056;-88
2021/12/26 00:20:54;;;;;;;16.20;9.90;;;;;;;-0.12;90.80;99697.41;4875873;29;20074;-89
2021/12/26 00:23:21;;;;;;;14.32;9.93;;;;;;;-0.04;91.12;99705.97;4882674;29;20068;-90
2021/12/26 00:25:49;;;;;;;17.08;10.05;;;;;;;-0.38;91.18;99644.91;4873791;29;20072;-89
2021/12/26 00:28:16;;;;;;;15.45;9.40;;;;;;;-0.26;91.49;99655.13;4865741;29;20045;-90
2021/12/26 00:30:44;;;;;;;16.30;10.05;;;;;;;0.07;91.15;99704.94;4862488;29;20058;-89
2021/12/26 00:33:11;;;;;;;13.77;9.40;;;;;;;0.01;91.74;99698.06;4843554;29;20062;-88
2021/12/26 00:35:39;;;;;;;15.07;9.60;;;;;;;-0.08;91.87;99680.00;4865269;29;20049;-89
2021/12/26 00:38:06;;;;;;;14.45;9.80;;;;;;;0.05;91.91;99704.97;4864710;29;20055;-90
2021/12/26 00:40:33;;;;;;;16.58;9.77;;;;;;;-0.14;91.29;99667.06;4870630;29;20080;-89
2021/12/26 00:43:02;;;;;;;15.35;9.55;;;;;;;-0.28;92.25;99651.69;4870597;29;20053;-90
2021/12/26 00:45:29;;;;;;;15.57;10.10;;;;;;;-0.17;91.58;99672.34;4864921;29;20117;-90
2021/12/26 00:47:56;;;;;;;16.50;10.38;;;;;;;-0.34;91.55;99641.38;4865374;29;20112;-90
2021/12/26 00:50:31;;;;;;;15.80;9.98;;;;;;;0.01;91.90;99698.06;4865545;29;20053;-89
2021/12/26 00:52:58;;;;;;;15.68;9.93;;;;;;;-0.23;91.56;99649.88;4860412;29;20153;-89
2021/12/26 00:55:26;;;;;;;15.63;10.48;;;;;;;-0.10;91.62;99676.56;4861811;29;20064;-90
2021/12/26 00:57:54;;;;;;;14.35;10.10;;;;;;;-0.27;91.65;99642.13;4869890;29;20063;-89
2021/12/26 01:00:25;;;;;;;15.15;10.20;;;;;;;-0.22;91.67;99653.34;4856420;29;20049;-89
2021/12/26 01:02:52;;;;;;;17.30;10.13;;;;;;;-0.27;91.34;99634.31;4858458;29;20072;-89
2021/12/26 01:05:21;;;;;;;15.23;9.80;;;;;;;0.11;91.26;99680.59;4860317;29;20053;-89
2021/12/26 01:08:00;;;;;;;18.65;10.63;;;;;;;-0.34;91.01;99619.72;4867352;29;20054;-89
2021/12/26 01:10:33;;;;;;;15.85;9.20;;;;;;;-0.21;91.49;99649.84;4857200;29;20585;-89
2021/12/26 01:13:09;;;;;;;15.50;9.85;;;;;;;-0.40;91.63;99616.31;4865536;29;20453;-89
2021/12/26 01:15:36;;;;;;;15.77;10.02;;;;;;;-0.26;91.91;99634.31;4867294;29;20066;-89
2021/12/26 01:18:03;;;;;;;15.88;10.55;;;;;;;-0.23;92.18;99644.69;4864721;29;20059;-90
2021/12/26 01:20:49;;;;;;;16.92;10.88;;;;;;;-0.01;92.83;99676.44;4864545;29;20052;-89
2021/12/26 01:23:20;;;;;;;15.05;9.80;;;;;;;-0.01;92.49;99679.91;4861385;29;20426;-89
2021/12/26 01:25:47;;;;;;;16.33;10.43;;;;;;;0.00;92.62;99685.97;4865866;29;20063;-89
2021/12/26 01:28:15;;;;;;;15.48;10.00;;;;;;;0.03;92.11;99685.91;4862966;29;20520;-89
2021/12/26 01:30:42;;;;;;;16.55;10.38;;;;;;;-0.14;92.59;99659.28;4867851;29;20132;-89
2021/12/26 01:33:15;;;;;;;17.35;10.50;;;;;;;-0.21;92.80;99652.47;4863631;29;20073;-89
2021/12/26 01:35:42;;;;;;;16.30;10.65;;;;;;;0.05;91.98;99675.47;4859880;29;20096;-89
2021/12/26 01:38:13;;;;;;;15.77;10.23;;;;;;;0.04;91.53;99686.75;4864566;29;20136;-89
2021/12/26 01:40:43;;;;;;;;;;;;;;;-0.02;91.96;99687.72;4850750;29;20077;-89
2021/12/26 01:43:10;;;;;;;16.92;10.63;;;;;;;-0.25;92.58;99640.38;4862637;29;19931;-89
2021/12/26 01:45:37;;;;;;;17.05;10.27;;;;;;;-0.33;92.13;99637.03;4860991;29;20049;-89
2021/12/26 01:48:05;;;;;;;18.10;10.73;;;;;;;-0.21;92.38;99655.06;4863044;29;20144;-88
2021/12/26 01:50:32;;;;;;;16.63;11.02;;;;;;;-0.07;92.62;99685.19;4864375;29;20426;-89
2021/12/26 01:52:59;;;;;;;15.43;9.98;;;;;;;-0.16;92.47;99669.69;4854769;29;20118;-88
2021/12/26 01:55:38;;;;;;;16.00;10.35;;;;;;;-0.10;92.26;99676.56;4864778;29;20052;-89
2021/12/26 01:58:08;;;;;;;16.33;10.77;;;;;;;-0.13;92.78;99666.19;4849863;29;20057;-89
2021/12/26 02:00:36;;;;;;;16.98;10.65;;;;;;;-0.28;91.80;99641.28;4870216;29;20054;-89
2021/12/26 02:03:03;;;;;;;15.35;9.88;;;;;;;-0.15;92.36;99666.22;4863210;29;20053;-90
2021/12/26 02:05:30;;;;;;;16.35;10.60;;;;;;;-0.30;91.68;99645.63;4861927;29;20055;-89
2021/12/26 02:07:56;;;;;;;16.23;10.98;;;;;;;-0.10;91.05;99684.38;4860753;29;20137;-91
2021/12/26 02:10:23;;;;;;;17.00;10.77;;;;;;;-0.21;91.13;99658.53;4863241;29;20056;-90
2021/12/26 02:12:50;;;;;;;15.70;10.93;;;;;;;-0.41;91.73;99635.41;4858521;29;20054;-89
2021/12/26 02:15:18;;;;;;;16.63;10.75;;;;;;;-0.11;91.55;99673.09;4860588;29;20057;-89
2021/12/26 02:17:45;;;;;;;15.32;10.65;;;;;;;-0.27;91.49;99653.41;4863390;29;20095;-90
2021/12/26 02:20:32;;;;;;;14.50;9.98;;;;;;;-0.15;91.12;99668.81;4864009;29;20068;-89
2021/12/26 02:23:06;;;;;;;18.85;10.90;;;;;;;-0.17;91.03;99667.16;4868783;29;20498;-89
2021/12/26 02:28:18;;;;;;;17.38;11.00;;;;;;;-0.19;90.07;99656.75;4877317;29;20121;-89
2021/12/26 02:30:47;;;;;;;14.90;10.27;;;;;;;-0.20;90.10;99649.84;4877932;29;20053;-90
2021/12/26 02:33:16;;;;;;;16.40;11.25;;;;;;;-0.09;90.12;99673.09;4863549;29;20190;-89
2021/12/26 02:35:43;;;;;;;18.90;10.73;;;;;;;-0.18;90.45;99662.81;4857744;29;20155;-89
2021/12/26 02:38:11;;;;;;;16.17;10.63;;;;;;;-0.21;90.95;99660.25;4862176;29;20161;-90
2021/12/26 02:40:39;;;;;;;16.58;10.40;;;;;;;-0.27;90.17;99652.53;4862557;29;20049;-89
2021/12/26 02:43:07;;;;;;;16.52;10.80;;;;;;;-0.51;90.26;99609.56;4862542;29;20049;-89
2021/12/26 02:45:35;;;;;;;16.40;10.55;;;;;;;-0.13;90.65;99680.06;4860718;29;20140;-89
2021/12/26 02:48:02;;;;;;;17.25;10.38;;;;;;;-0.29;89.52;99646.50;4864817;29;20116;-89
2021/12/26 02:50:31;;;;;;;15.80;10.23;;;;;;;-0.33;89.89;99642.25;4862642;29;20490;-89
2021/12/26 02:53:00;;;;;;;15.63;10.30;;;;;;;-0.33;90.40;99643.09;4859359;29;20133;-88
2021/12/26 02:55:28;;;;;;;18.70;11.27;;;;;;;-0.14;90.00;99672.28;4853486;29;20106;-89
2021/12/26 02:58:03;;;;;;;17.23;10.63;;;;;;;-0.23;89.77;99655.06;4863064;29;20168;-89
2021/12/26 03:00:34;;;;;;;16.98;11.10;;;;;;;-0.28;89.96;99646.47;4862768;29;20080;-90
2021/12/26 03:03:04;;;;;;;16.33;10.65;;;;;;;-0.22;89.81;99661.16;4861953;29;20142;-89
2021/12/26 03:05:36;;;;;;;16.15;10.60;;;;;;;-0.10;89.65;99676.56;4853963;29;20489;-90
2021/12/26 03:08:05;;;;;;;16.20;10.63;;;;;;;-0.21;89.55;99644.66;4865776;29;20675;-89
2021/12/26 03:10:32;;;;;;;15.40;10.13;;;;;;;-0.44;89.02;99604.22;4863918;29;20148;-89
2021/12/26 03:13:02;;;;;;;16.77;10.85;;;;;;;-0.12;89.92;99653.16;4859504;29;20136;-89
2021/12/26 03:15:31;;;;;;;15.20;10.48;;;;;;;-0.21;89.93;99634.25;4857692;29;20057;-89
2021/12/26 03:18:00;;;;;;;15.50;10.73;;;;;;;-0.26;89.27;99633.44;4861803;29;20108;-89
2021/12/26 03:20:31;;;;;;;15.73;11.02;;;;;;;-0.17;90.14;99648.94;4861787;29;20467;-89
2021/12/26 03:23:00;;;;;;;18.00;10.68;;;;;;;-0.40;89.80;99611.09;4858231;29;20082;-90
2021/12/26 03:25:32;;;;;;;16.80;10.43;;;;;;;-0.03;88.93;99667.78;4857268;29;20072;-89
2021/12/26 03:27:59;;;;;;;17.42;10.55;;;;;;;-0.22;89.46;99643.78;4860638;29;20065;-92
2021/12/26 03:30:29;;;;;;;16.23;10.02;;;;;;;-0.11;89.32;99665.28;4860850;29;20163;-89
2021/12/26 03:32:57;;;;;;;15.13;10.32;;;;;;;-0.01;89.40;99682.50;4838771;29;20054;-91
2021/12/26 03:35:26;;;;;;;16.35;10.82;;;;;;;-0.10;89.37;99669.63;4855566;29;20137;-91
2021/12/26 03:37:54;;;;;;;15.63;10.63;;;;;;;-0.33;89.70;99624.91;4858614;29;20565;-90
2021/12/26 03:40:21;;;;;;;22.20;11.02;;;;;;;-0.05;89.40;99664.34;4858570;29;20081;-89
2021/12/26 03:42:51;;;;;;;16.23;10.75;;;;;;;-0.09;89.51;99658.31;4859446;29;20046;-89
2021/12/26 03:45:38;;;;;;;20.20;12.00;;;;;;;-0.03;89.63;99662.59;4855476;29;20077;-89
2021/12/26 03:48:05;;;;;;;16.55;10.25;;;;;;;-0.07;88.99;99668.72;4860372;29;20072;-89
2021/12/26 03:50:32;;;;;;;17.00;10.93;;;;;;;-0.32;89.13;99613.59;4854772;29;20061;-89
2021/12/26 03:53:01;;;;;;;17.30;10.73;;;;;;;-0.21;89.03;99637.72;4861315;29;20077;-89
2021/12/26 03:55:29;;;;;;;17.27;10.88;;;;;;;-0.11;89.46;99660.09;4861576;29;20475;-90
2021/12/26 03:57:56;;;;;;;18.50;11.50;;;;;;;-0.10;89.49;99656.59;4861442;29;20084;-89
2021/12/26 04:00:25;;;;;;;18.70;11.80;;;;;;;-0.18;89.71;99636.81;4862596;29;20057;-89
2021/12/26 04:02:52;;;;;;;17.30;11.15;;;;;;;-0.18;89.61;99640.28;4860854;29;20089;-89
2021/12/26 04:05:21;;;;;;;16.42;11.30;;;;;;;0.00;89.21;99662.53;4859426;29;20046;-90
2021/12/26 04:07:48;;;;;;;15.77;10.00;;;;;;;-0.10;89.35;99637.53;4860721;29;20053;-89
2021/12/26 04:10:16;;;;;;;17.05;11.68;;;;;;;-0.37;89.20;99603.25;4864933;29;20061;-89
2021/12/26 04:12:47;;;;;;;15.23;10.23;;;;;;;-0.10;88.94;99648.78;4861459;29;20080;-90
2021/12/26 04:15:19;;;;;;;18.48;11.50;;;;;;;-0.08;89.61;99661.78;4860067;29;20092;-90
2021/12/26 04:17:48;;;;;;;19.15;11.57;;;;;;;-0.29;89.60;99628.28;4868721;29;20152;-89
2021/12/26 04:20:15;;;;;;;18.38;11.52;;;;;;;-0.06;89.58;99663.50;4870508;29;20053;-90
2021/12/26 04:22:41;;;;;;;17.23;10.90;;;;;;;-0.18;89.63;99644.63;4863997;29;20111;-89
2021/12/26 04:25:08;;;;;;;18.88;11.98;;;;;;;-0.06;90.00;99666.09;4861160;29;20078;-89
2021/12/26 04:27:36;;;;;;;18.33;10.68;;;;;;;-0.11;90.34;99665.28;4859546;29;20057;-89
2021/12/26 04:30:06;;;;;;;19.13;10.93;;;;;;;-0.16;90.20;99661.06;4864214;29;20049;-89
2021/12/26 04:32:33;;;;;;;17.45;11.35;;;;;;;-0.13;89.77;99672.25;4858046;29;20046;-89
2021/12/26 04:35:01;;;;;;;19.02;11.45;;;;;;;-0.22;90.34;99658.53;4861994;29;20595;-89
2021/12/26 04:37:28;;;;;;;19.13;12.18;;;;;;;-0.31;89.46;99640.44;4860445;29;20053;-89
2021/12/26 04:39:55;;;;;;;18.55;11.15;;;;;;;-0.14;90.11;99673.13;4867430;29;20069;-90
2021/12/26 04:42:22;;;;;;;18.48;11.27;;;;;;;-0.08;89.56;99682.59;4861026;29;20480;-89
2021/12/26 04:44:52;;;;;;;18.55;11.35;;;;;;;-0.23;89.39;99654.22;4857663;29;20149;-90
2021/12/26 04:47:18;;;;;;;19.00;11.75;;;;;;;-0.27;89.68;99652.53;4840648;29;20050;-89
2021/12/26 04:49:45;;;;;;;16.90;11.10;;;;;;;-0.21;89.73;99663.72;4861521;29;20077;-89
2021/12/26 04:52:12;;;;;;;20.92;12.10;;;;;;;-0.22;89.55;99661.16;4858140;29;20058;-89
2021/12/26 04:54:39;;;;;;;17.75;11.30;;;;;;;-0.24;89.67;99655.97;4855916;29;20533;-89
2021/12/26 04:57:06;;;;;;;20.20;11.45;;;;;;;-0.19;90.25;99666.31;4861988;29;20087;-89
2021/12/26 04:59:33;;;;;;;20.98;12.30;;;;;;;-0.18;90.21;99668.88;4865051;29;20121;-90
2021/12/26 05:01:59;;;;;;;16.20;10.45;;;;;;;-0.25;90.32;99651.63;4863444;29;20152;-89
2021/12/26 05:04:26;;;;;;;19.90;11.80;;;;;;;-0.27;90.78;99657.75;4858901;29;20046;-90
2021/12/26 05:06:53;;;;;;;19.45;11.60;;;;;;;-0.28;90.51;99648.22;4855140;29;20109;-89
2021/12/26 05:09:20;;;;;;;16.58;11.68;;;;;;;-0.15;90.34;99679.22;4865977;29;20064;-90
2021/12/26 05:11:47;;;;;;;19.25;11.90;;;;;;;-0.09;90.08;99683.50;4862813;29;20057;-90
2021/12/26 05:14:13;;;;;;;17.02;11.65;;;;;;;-0.13;89.82;99676.59;4864453;29;20776;-89
2021/12/26 05:16:41;;;;;;;17.88;11.05;;;;;;;-0.07;89.33;99672.19;4862950;29;20065;-89
2021/12/26 05:19:07;;;;;;;18.27;11.88;;;;;;;-0.22;89.63;99655.94;4862095;29;20080;-89
2021/12/26 05:21:34;;;;;;;18.85;11.70;;;;;;;-0.43;89.54;99615.50;4862567;29;20053;-89
2021/12/26 05:24:00;;;;;;;19.73;12.05;;;;;;;-0.24;89.88;99650.75;4860406;29;20062;-89
2021/12/26 05:26:28;;;;;;;17.83;11.38;;;;;;;-0.16;89.26;99666.28;4857762;29;20049;-89
2021/12/26 05:28:54;;;;;;;20.15;12.02;;;;;;;-0.44;89.20;99630.25;4858249;29;20362;-89
2021/12/26 05:31:21;;;;;;;18.98;11.60;;;;;;;-0.54;89.44;99602.66;4861362;29;20053;-90
2021/12/26 05:33:48;;;;;;;19.20;12.32;;;;;;;-0.38;89.38;99634.50;4866439;29;20067;-89
2021/12/26 05:36:15;;;;;;;21.05;12.07;;;;;;;-0.37;90.49;99642.28;4857578;29;20076;-88
2021/12/26 05:38:42;;;;;;;19.50;12.25;;;;;;;-0.27;90.79;99670.75;4863761;29;20073;-90
2021/12/26 05:41:08;;;;;;;18.65;12.07;;;;;;;-0.24;90.77;99658.56;4865136;29;20141;-89
2021/12/26 05:43:35;;;;;;;20.45;12.40;;;;;;;-0.41;91.25;99618.94;4863831;29;20046;-90
2021/12/26 05:46:02;;;;;;;19.50;11.90;;;;;;;-0.60;90.61;99592.34;4859214;29;20173;-89
2021/12/26 05:48:29;;;;;;;20.20;12.25;;;;;;;-0.39;90.97;99646.66;4866810;29;20053;-89
2021/12/26 05:50:56;;;;;;;19.23;11.93;;;;;;;-0.39;91.21;99641.44;4867064;29;20053;-89
2021/12/26 05:53:22;;;;;;;19.50;12.15;;;;;;;-0.44;91.49;99638.03;4863223;29;20057;-89
2021/12/26 05:55:49;;;;;;;20.67;12.63;;;;;;;-0.33;91.17;99650.91;4859560;29;20053;-89
2021/12/26 05:58:16;;;;;;;21.27;12.63;;;;;;;-0.48;90.98;99623.38;4862954;29;20515;-89
2021/12/26 06:00:43;;;;;;;20.15;12.23;;;;;;;-0.37;90.53;99636.22;4862419;29;20057;-89
2021/12/26 06:03:10;;;;;;;21.85;12.90;;;;;;;-0.30;90.63;99649.97;4862456;29;20076;-89
2021/12/26 06:05:36;;;;;;;20.48;12.18;;;;;;;-0.29;90.33;99646.50;4855776;29;20063;-90
2021/12/26 06:08:03;;;;;;;19.73;12.32;;;;;;;-0.45;90.76;99638.91;4860976;29;20058;-89
2021/12/26 06:10:30;;;;;;;21.00;12.23;;;;;;;-0.36;90.69;99662.22;4864496;29;20059;-89
2021/12/26 06:12:56;;;;;;;19.67;12.15;;;;;;;-0.41;90.75;99653.59;4861218;29;20054;-89
2021/12/26 06:15:25;;;;;;;19.15;12.60;;;;;;;-0.46;91.04;99645.00;4862414;29;20114;-89
2021/12/26 06:17:52;;;;;;;20.55;12.43;;;;;;;-0.52;91.30;99642.50;4864277;29;20227;-88
2021/12/26 06:20:19;;;;;;;19.80;12.45;;;;;;;-0.38;91.34;99661.38;4864649;29;20144;-89
2021/12/26 06:22:46;;;;;;;21.75;12.63;;;;;;;-0.50;91.28;99635.53;4862443;29;20405;-89
2021/12/26 06:25:14;;;;;;;19.52;12.10;;;;;;;-0.44;90.44;99647.59;4860719;29;20060;-88
2021/12/26 06:27:41;;;;;;;18.63;12.25;;;;;;;-0.42;90.67;99654.50;4853295;29;20090;-89
2021/12/26 06:30:09;;;;;;;20.35;12.13;;;;;;;-0.28;90.45;99676.84;4859466;29;20061;-89
2021/12/26 06:32:36;;;;;;;20.23;12.32;;;;;;;-0.33;89.76;99665.66;4861473;29;20057;-89
2021/12/26 06:35:05;;;;;;;21.30;12.32;;;;;;;-0.34;89.42;99670.00;4858049;29;20046;-89
2021/12/26 06:37:35;;;;;;;19.30;11.35;;;;;;;-0.51;89.87;99639.03;4859216;29;20437;-89
2021/12/26 06:40:02;;;;;;;13.35;9.23;;;;;;;-0.60;89.63;99631.34;4862778;29;20080;-90
2021/12/26 06:42:33;;;;;;;19.65;12.02;;;;;;;-0.58;89.43;99636.53;4861279;29;20057;-89
2021/12/26 06:45:00;;;;;;;;;;;;;;;-0.33;89.77;99670.84;4849168;29;20064;-89
2021/12/26 06:47:27;;;;;;;18.30;11.10;;;;;;;-0.69;89.93;99610.69;4859920;29;20511;-89
2021/12/26 06:49:53;;;;;;;19.95;11.90;;;;;;;-0.44;89.99;99656.25;4865679;29;20085;-89
2021/12/26 06:52:20;;;;;;;19.73;12.25;;;;;;;-0.70;90.13;99608.97;4860217;29;20053;-89
2021/12/26 06:54:47;;;;;;;21.63;12.40;;;;;;;-0.68;90.34;99614.16;4858056;29;20077;-89
2021/12/26 06:57:14;;;;;;;21.83;12.57;;;;;;;-0.67;90.83;99608.91;4858454;29;20081;-89
2021/12/26 06:59:41;;;;;;;19.90;12.25;;;;;;;-0.49;90.22;99642.47;4866906;29;20060;-89
2021/12/26 07:02:08;;;;;;;19.88;12.23;;;;;;;-0.47;90.23;99643.28;4860212;29;20081;-89
2021/12/26 07:04:35;;;;;;;19.00;11.45;;;;;;;-0.61;90.36;99615.75;4863304;29;20053;-89
2021/12/26 07:07:02;;;;;;;19.45;12.45;;;;;;;-0.32;90.53;99660.44;4856322;29;20542;-89
2021/12/26 07:09:29;;;;;;;19.50;12.10;;;;;;;-0.32;90.15;99660.44;4861443;29;20067;-89
2021/12/26 07:11:55;;;;;;;19.10;11.55;;;;;;;-0.43;89.98;99652.75;4860932;29;20077;-88
2021/12/26 07:14:22;;;;;;;19.52;12.32;;;;;;;-0.36;90.29;99657.00;4860570;29;20148;-89
2021/12/26 07:16:49;;;;;;;21.58;12.65;;;;;;;-0.28;89.84;99661.22;4854851;29;20054;-89
2021/12/26 07:19:16;;;;;;;19.42;11.93;;;;;;;-0.38;90.18;99655.31;4859646;29;20054;-89
2021/12/26 07:21:42;;;;;;;20.90;12.13;;;;;;;-0.48;90.16;99628.59;4870240;29;20053;-89
2021/12/26 07:24:09;;;;;;;21.33;12.40;;;;;;;-0.39;89.98;99641.44;4863193;29;20506;-89
2021/12/26 07:26:37;;;;;;;17.88;12.07;;;;;;;-0.39;89.96;99645.78;4856284;29;20061;-89
2021/12/26 07:29:03;;;;;;;20.52;12.63;;;;;;;-0.28;89.48;99658.63;4860978;29;20058;-89
2021/12/26 07:31:30;;;;;;;19.98;12.05;;;;;;;-0.25;90.11;99679.41;4860616;29;20144;-88
2021/12/26 07:33:57;;;;;;;18.98;12.30;;;;;;;-0.26;90.17;99665.53;4884168;29;20068;-89
2021/12/26 07:36:26;;;;;;;20.52;12.23;;;;;;;-0.37;90.17;99651.81;4868298;29;20048;-88
2021/12/26 07:38:53;;;;;;;19.75;12.05;;;;;;;-0.38;90.02;99660.50;4860477;29;20053;-88
2021/12/26 07:41:21;;;;;;;21.80;12.07;;;;;;;-0.53;89.34;99638.19;4864288;29;20053;-88
2021/12/26 07:43:48;;;;;;;20.67;12.25;;;;;;;-0.23;89.44;99685.44;4864856;29;20050;-89
2021/12/26 07:46:16;;;;;;;18.73;11.95;;;;;;;-0.39;89.13;99664.84;4859574;29;20314;-90
2021/12/26 07:48:43;;;;;;;18.83;11.40;;;;;;;-0.26;88.90;99685.47;4860491;29;20097;-88
2021/12/26 07:51:10;;;;;;;19.50;12.13;;;;;;;-0.42;89.41;99664.03;4862230;29;20122;-89
2021/12/26 07:53:37;;;;;;;21.45;11.55;;;;;;;-0.42;89.22;99662.28;4858254;29;20046;-89
2021/12/26 07:56:04;;;;;;;20.08;11.85;;;;;;;-0.38;88.92;99666.56;4856947;29;20524;-89
2021/12/26 07:58:31;;;;;;;18.55;11.65;;;;;;;-0.45;88.97;99659.72;4856093;29;20050;-88
2021/12/26 08:00:58;;;;;;;19.00;12.25;;;;;;;-0.40;88.61;99673.53;4860707;29;20061;-90
2021/12/26 08:03:25;;;;;;;19.38;12.00;;;;;;;-0.30;89.21;99689.00;4858739;29;20328;-89
2021/12/26 08:05:54;;;;;;;21.52;12.40;;;;;;;-0.26;89.20;99691.53;4859263;29;20151;-89
2021/12/26 08:08:21;;;;;;;21.10;11.85;;;;;;;-0.43;89.86;99657.97;4854724;29;20068;-88
2021/12/26 08:10:48;;;;;;;19.17;12.25;;;;;;;-0.39;89.22;99658.78;4855432;29;20193;-89
2021/12/26 08:13:15;;;;;;;20.05;12.25;;;;;;;-0.39;89.73;99649.25;4858796;29;20638;-89
2021/12/26 08:15:44;;;;;;;19.50;11.73;;;;;;;-0.32;88.61;99659.56;4859532;29;20066;-89
2021/12/26 08:18:10;;;;;;;19.00;11.88;;;;;;;-0.22;89.20;99679.34;4857057;29;20152;-89
2021/12/26 08:20:37;;;;;;;17.15;11.52;;;;;;;-0.05;88.56;99698.19;4860749;29;20140;-89
2021/12/26 08:23:04;;;;;;;17.45;10.82;;;;;;;-0.31;88.34;99667.31;4861963;29;20053;-89
2021/12/26 08:25:31;;;;;;;18.85;11.70;;;;;;;-0.25;88.80;99672.44;4861459;29;20049;-88
2021/12/26 08:27:58;;;;;;;19.85;11.68;;;;;;;-0.08;89.23;99700.81;4854564;29;20077;-89
2021/12/26 08:30:26;;;;;;;18.65;11.32;;;;;;;-0.17;88.76;99675.81;4860527;29;20403;-89
2021/12/26 08:32:54;;;;;;;18.40;11.90;;;;;;;-0.23;88.61;99657.69;4859848;29;20080;-89
2021/12/26 08:35:21;;;;;;;18.77;11.35;;;;;;;-0.36;88.54;99636.19;4859357;29;20394;-90
2021/12/26 08:37:48;;;;;;;20.30;11.38;;;;;;;0.04;87.87;99695.44;4856051;29;20124;-89
2021/12/26 08:40:15;;;;;;;20.88;12.55;;;;;;;0.04;87.76;99698.03;4858574;29;20057;-89
2021/12/26 08:42:43;;;;;;;18.63;11.32;;;;;;;-0.04;87.66;99681.69;4860853;29;20141;-89
2021/12/26 08:45:10;;;;;;;19.10;11.80;;;;;;;0.04;87.87;99697.16;4859723;29;20057;-89
2021/12/26 08:47:38;;;;;;;18.08;11.30;;;;;;;-0.08;87.88;99675.66;4856927;29;20088;-89
2021/12/26 08:50:06;;;;;;;19.05;11.45;;;;;;;0.14;87.23;99701.38;4861409;29;20049;-88
2021/12/26 08:52:33;;;;;;;19.88;11.75;;;;;;;0.08;87.78;99697.09;4864001;29;20132;-89
2021/12/26 08:55:00;;;;;;;18.92;12.18;;;;;;;-0.16;87.69;99642.84;4863353;29;20092;-88
2021/12/26 08:57:27;;;;;;;19.33;11.48;;;;;;;0.07;87.46;99684.09;4855727;29;20049;-89
2021/12/26 08:59:53;;;;;;;17.98;11.27;;;;;;;0.24;87.80;99701.19;4863451;29;20598;-88
2021/12/26 09:02:20;;;;;;;18.95;11.70;;;;;;;0.20;87.07;99691.69;4862544;29;20502;-88
2021/12/26 09:04:46;;;;;;;18.20;11.68;;;;;;;0.30;86.59;99703.69;4862688;29;20069;-89
2021/12/26 09:07:13;;;;;;;17.63;11.45;;;;;;;0.23;86.40;99686.44;4859146;29;20061;-89
2021/12/26 09:09:44;;;;;;;17.20;11.00;;;;;;;0.33;86.25;99716.66;4874851;29;20152;-89
2021/12/26 09:12:10;;;;;;;18.38;11.32;;;;;;;0.17;86.71;99686.53;4861741;29;20076;-87
2021/12/26 09:14:42;;;;;;;18.35;11.30;;;;;;;0.24;87.48;99698.56;4863971;29;20053;-89
2021/12/26 09:17:09;;;;;;;18.70;11.55;;;;;;;0.25;87.30;99699.44;4859638;29;20057;-89
2021/12/26 09:19:36;;;;;;;18.40;12.02;;;;;;;0.31;88.01;99709.78;4864639;29;20137;-89
2021/12/26 09:22:05;;;;;;;19.40;12.15;;;;;;;0.25;88.39;99700.31;4862409;29;20109;-89
2021/12/26 09:24:32;;;;;;;19.77;11.82;;;;;;;0.32;88.11;99704.50;4864416;29;20451;-89
2021/12/26 09:27:00;;;;;;;19.98;11.60;;;;;;;0.12;88.20;99661.47;4858179;29;20060;-89
2021/12/26 09:29:26;;;;;;;18.58;11.93;;;;;;;0.28;88.24;99692.44;4866378;29;20097;-89
2021/12/26 09:31:54;;;;;;;20.77;12.10;;;;;;;0.33;87.68;99688.00;4861911;29;20152;-89
2021/12/26 09:34:20;;;;;;;18.42;11.82;;;;;;;0.33;87.98;99682.78;4862809;29;20934;-89
2021/12/26 09:36:47;;;;;;;19.92;12.23;;;;;;;0.44;88.05;99695.66;4845751;29;20077;-89
2021/12/26 09:39:14;;;;;;;18.80;11.55;;;;;;;0.52;88.22;99703.31;4861462;29;20095;-89
2021/12/26 09:41:42;;;;;;;17.00;11.15;;;;;;;0.45;87.72;99688.69;4859737;29;20132;-89
2021/12/26 09:44:09;;;;;;;18.75;11.02;;;;;;;0.56;87.65;99705.00;4863914;29;20505;-90
2021/12/26 09:46:37;;;;;;;20.05;11.73;;;;;;;0.35;87.87;99665.41;4859196;29;20963;-89
2021/12/26 09:49:04;;;;;;;21.58;12.02;;;;;;;0.58;87.84;99685.84;4862663;29;20057;-92
2021/12/26 09:51:31;;;;;;;16.60;10.35;;;;;;;0.56;87.27;99689.34;4861935;29;20080;-89
2021/12/26 09:54:01;;;;;;;18.15;10.80;;;;;;;0.63;86.81;99690.97;4861587;29;20144;-90
2021/12/26 09:56:28;;;;;;;17.63;11.20;;;;;;;0.48;86.49;99667.78;4864287;29;20077;-92
2021/12/26 09:59:06;;;;;;;18.05;11.48;;;;;;;0.68;87.21;99694.34;4860508;29;20271;-91
2021/12/26 10:01:40;;;;;;;19.67;11.77;;;;;;;0.39;87.36;99631.50;4863254;29;20049;-92
2021/12/26 10:04:28;;;;;;;20.73;12.10;;;;;;;0.79;87.32;99697.59;4858645;29;20091;-91
2021/12/26 10:07:09;;;;;;;19.42;11.50;;;;;;;0.77;87.74;99691.59;4854848;29;20493;-91
2021/12/26 10:09:39;;;;;;;18.63;11.32;;;;;;;0.47;87.22;99640.03;4860062;29;20121;-91
2021/12/26 10:12:08;;;;;;;18.25;11.88;;;;;;;0.64;87.24;99646.63;4862206;29;20140;-92
2021/12/26 10:14:38;;;;;;;19.88;11.45;;;;;;;0.55;86.64;99630.31;4865872;29;20046;-91
2021/12/26 10:17:14;;;;;;;17.63;11.68;;;;;;;0.47;86.45;99621.81;4857834;29;21719;-91
2021/12/26 10:19:44;;;;;;;17.38;11.50;;;;;;;0.63;86.99;99650.13;4855072;29;20053;-91
2021/12/26 10:22:14;;;;;;;13.95;9.07;;;;;;;0.81;87.50;99676.72;4858563;29;20053;-91
2021/12/26 10:24:46;;;;;;;18.83;11.37;;;;;;;0.51;87.63;99618.25;4860009;29;20083;-91
2021/12/26 10:27:21;;;;;;;18.30;11.27;;;;;;;0.84;86.75;99658.44;4859273;29;20084;-91
2021/12/26 10:29:57;;;;;;;17.80;11.27;;;;;;;0.75;86.93;99649.06;4870445;29;20060;-90
2021/12/26 10:32:34;;;;;;;20.25;11.88;;;;;;;0.56;86.96;99617.28;4870459;29;20125;-90
2021/12/26 10:35:09;;;;;;;20.88;12.88;;;;;;;0.53;87.12;99606.03;4862675;29;20056;-91
2021/12/26 10:37:42;;;;;;;19.02;12.13;;;;;;;0.81;88.01;99651.53;4863457;29;20145;-92
2021/12/26 10:40:14;;;;;;;16.90;10.90;;;;;;;0.93;87.80;99666.94;4863407;29;20080;-92
2021/12/26 10:42:46;;;;;;;20.15;12.15;;;;;;;0.72;87.31;99636.06;4857028;29;20061;-91
2021/12/26 10:45:21;;;;;;;18.75;11.57;;;;;;;0.79;87.43;99639.44;4852727;29;20093;-91
2021/12/26 10:47:54;;;;;;;20.23;12.25;;;;;;;0.68;86.88;99622.25;4858173;29;20062;-92
2021/12/26 10:50:23;;;;;;;21.80;12.50;;;;;;;0.79;87.08;99626.41;4864722;29;20173;-91
2021/12/26 10:53:00;;;;;;;20.48;12.50;;;;;;;0.84;87.58;99633.22;4865645;29;20061;-91
2021/12/26 10:55:41;;;;;;;18.67;12.27;;;;;;;0.88;88.56;99624.47;4873483;29;20085;-92
2021/12/26 10:58:20;;;;;;;20.40;12.70;;;;;;;0.86;87.91;99613.22;4861530;29;20046;-91
2021/12/26 11:00:55;;;;;;;21.08;12.45;;;;;;;0.76;86.66;99596.06;4863502;29;20081;-91
2021/12/26 11:03:25;;;;;;;20.13;12.13;;;;;;;1.07;86.22;99651.03;4863177;29;20048;-92
2021/12/26 11:05:55;;;;;;;19.45;12.85;;;;;;;1.00;86.28;99645.06;4866716;29;20053;-91
2021/12/26 11:08:28;;;;;;;19.07;12.07;;;;;;;0.98;86.97;99641.63;4859617;29;20061;-91
2021/12/26 11:10:57;;;;;;;19.95;11.80;;;;;;;0.99;86.85;99643.34;4861116;29;20594;-91
2021/12/26 11:13:26;;;;;;;21.27;12.85;;;;;;;0.72;87.75;99597.00;4859644;29;20467;-91
2021/12/26 11:15:56;;;;;;;20.67;12.75;;;;;;;0.83;87.61;99612.41;4860052;29;20069;-91
2021/12/26 11:18:23;;;;;;;21.55;12.48;;;;;;;0.85;87.50;99619.31;4858487;29;20124;-93
2021/12/26 11:20:53;;;;;;;18.15;11.77;;;;;;;0.86;88.27;99615.81;4855651;29;20065;-93
2021/12/26 11:23:28;;;;;;;20.47;12.83;;;;;;;0.90;87.78;99611.41;4854937;29;20144;-92
2021/12/26 11:26:03;;;;;;;19.63;12.38;;;;;;;0.81;88.72;99602.00;4860838;29;20469;-92
2021/12/26 11:28:44;;;;;;;21.08;12.93;;;;;;;0.87;89.21;99606.25;4852199;29;20045;-94
2021/12/26 11:31:22;;;;;;;20.88;12.95;;;;;;;0.84;89.62;99591.53;4860804;29;20152;-93